createdAt,value
2022-10-13T00:03:37.866Z,5.30
2022-10-13T00:08:41.276Z,5.30
2022-10-13T00:13:45.571Z,5.20
2022-10-13T00:18:48.810Z,5.20
2022-10-13T00:23:52.431Z,5.20
2022-10-13T00:28:56.420Z,5.40
2022-10-13T00:34:00.366Z,5.40
2022-10-13T00:39:02.765Z,5.20
2022-10-13T00:44:07.637Z,5.10
2022-10-13T00:49:15.114Z,5.10
2022-10-13T00:54:25.484Z,5.10
2022-10-13T00:59:29.382Z,5.10
2022-10-13T01:04:37.977Z,5.00
2022-10-13T01:09:42.383Z,5.00
2022-10-13T01:14:49.476Z,5.20
2022-10-13T01:20:05.850Z,5.00
2022-10-13T01:25:44.946Z,4.90
2022-10-13T01:30:54.758Z,5.20
2022-10-13T01:36:25.560Z,4.90
2022-10-13T01:41:32.101Z,4.80
2022-10-13T01:46:37.721Z,4.50
2022-10-13T01:51:40.899Z,4.60
2022-10-13T01:56:51.563Z,4.60
2022-10-13T02:02:18.011Z,4.50
2022-10-13T02:07:38.556Z,4.60
2022-10-13T02:13:01.308Z,4.50
2022-10-13T02:18:04.907Z,4.40
2022-10-13T02:23:11.929Z,4.40
2022-10-13T02:28:15.683Z,4.50
2022-10-13T02:33:19.105Z,4.30
2022-10-13T02:38:21.535Z,4.40
2022-10-13T02:43:24.017Z,4.40
2022-10-13T02:48:26.382Z,4.40
2022-10-13T02:53:28.724Z,4.30
2022-10-13T02:58:31.177Z,4.30
2022-10-13T03:03:34.489Z,4.20
2022-10-13T03:08:37.883Z,4.20
2022-10-13T03:13:40.267Z,4.50
2022-10-13T03:18:42.948Z,4.40
2022-10-13T03:23:45.348Z,4.40
2022-10-13T03:28:51.799Z,4.10
2022-10-13T03:33:54.964Z,4.10
2022-10-13T03:38:57.303Z,4.20
2022-10-13T03:43:59.642Z,4.00
2022-10-13T03:49:03.509Z,4.00
2022-10-13T03:54:05.948Z,4.10
2022-10-13T03:59:16.720Z,4.20
2022-10-13T04:04:19.125Z,4.10
2022-10-13T04:09:25.592Z,4.10
2022-10-13T04:14:28.004Z,4.00
2022-10-13T04:19:36.916Z,4.10
2022-10-13T04:24:41.016Z,4.00
2022-10-13T04:29:43.426Z,4.00
2022-10-13T04:34:45.787Z,3.80
2022-10-13T04:39:48.376Z,3.90
2022-10-13T04:44:50.748Z,3.90
2022-10-13T04:49:56.693Z,3.80
2022-10-13T04:54:59.062Z,3.80
2022-10-13T05:00:01.814Z,3.80
2022-10-13T05:05:07.146Z,4.00
2022-10-13T05:10:09.783Z,3.90
2022-10-13T05:15:12.172Z,3.80
2022-10-13T05:20:14.740Z,3.90
2022-10-13T05:25:17.541Z,4.00
2022-10-13T05:30:19.941Z,4.00
2022-10-13T05:35:22.334Z,4.10
2022-10-13T05:40:24.747Z,4.20
2022-10-13T05:45:33.337Z,4.40
2022-10-13T05:50:35.805Z,4.50
2022-10-13T05:55:38.687Z,4.60
2022-10-13T06:00:43.158Z,4.60
2022-10-13T06:05:47.619Z,4.70
2022-10-13T06:10:50.008Z,5.00
2022-10-13T06:15:53.362Z,5.20
2022-10-13T06:20:56.333Z,5.40
2022-10-13T06:25:58.750Z,5.60
2022-10-13T06:31:03.635Z,5.80
2022-10-13T06:36:06.961Z,6.00
2022-10-13T06:41:09.488Z,6.20
2022-10-13T06:46:12.820Z,6.40
2022-10-13T06:51:15.409Z,6.60
2022-10-13T06:56:17.851Z,6.60
2022-10-13T07:01:20.401Z,6.80
2022-10-13T07:06:22.750Z,6.90
2022-10-13T07:11:26.445Z,7.20
2022-10-13T07:16:32.408Z,7.20
2022-10-13T07:21:35.079Z,7.30
2022-10-13T07:26:37.526Z,7.50
2022-10-13T07:31:40.092Z,7.80
2022-10-13T07:36:42.583Z,7.90
2022-10-13T07:41:48.773Z,8.10
2022-10-13T07:46:53.259Z,8.40
2022-10-13T07:51:55.637Z,8.50
2022-10-13T07:56:58.446Z,8.70
2022-10-13T08:02:01.619Z,8.90
2022-10-13T08:07:05.830Z,9.10
2022-10-13T08:12:08.396Z,9.30
2022-10-13T08:17:10.855Z,9.50
2022-10-13T08:22:14.803Z,9.50
2022-10-13T08:27:21.996Z,9.60
2022-10-13T08:32:24.667Z,9.90
2022-10-13T08:37:27.092Z,9.80
2022-10-13T08:42:29.687Z,10.30
2022-10-13T08:47:34.781Z,10.30
2022-10-13T08:52:49.372Z,10.50
2022-10-13T08:57:52.226Z,10.70
2022-10-13T09:03:27.971Z,11.00
2022-10-13T09:08:39.672Z,11.20
2022-10-13T09:13:42.302Z,11.50
2022-10-13T09:18:44.582Z,11.50
2022-10-13T09:23:52.045Z,11.90
2022-10-13T09:28:54.389Z,12.10
2022-10-13T09:34:02.534Z,12.30
2022-10-13T09:39:14.469Z,12.50
2022-10-13T09:44:29.064Z,13.00
2022-10-13T09:49:40.129Z,13.10
2022-10-13T09:54:47.510Z,13.30
2022-10-13T09:59:58.810Z,13.60
2022-10-13T10:05:07.799Z,13.90
2022-10-13T10:10:24.809Z,14.20
2022-10-13T10:15:32.762Z,14.60
2022-10-13T10:20:47.226Z,15.00
2022-10-13T10:26:07.023Z,15.20
2022-10-13T10:31:29.467Z,15.30
2022-10-13T10:36:38.037Z,15.60
2022-10-13T10:41:43.489Z,15.90
2022-10-13T10:46:50.453Z,16.20
2022-10-13T10:51:53.363Z,16.40
2022-10-13T10:57:02.166Z,16.60
2022-10-13T11:02:07.247Z,16.90
2022-10-13T11:07:23.252Z,17.00
2022-10-13T11:12:44.951Z,17.10
2022-10-13T11:17:47.348Z,17.50
2022-10-13T11:22:58.756Z,17.80
2022-10-13T11:28:21.398Z,18.20
2022-10-13T11:33:53.407Z,18.40
2022-10-13T11:44:51.282Z,18.90
2022-10-13T11:50:19.403Z,19.20
2022-10-13T11:55:48.542Z,19.30
2022-10-13T12:00:51.771Z,19.20
2022-10-13T12:05:57.791Z,19.40
2022-10-13T12:11:03.123Z,19.60
2022-10-13T12:16:07.343Z,19.50
2022-10-13T12:21:16.226Z,19.30
2022-10-13T12:26:28.401Z,19.40
2022-10-13T12:31:42.621Z,19.40
2022-10-13T12:36:46.462Z,19.50
2022-10-13T12:41:49.472Z,19.90
2022-10-13T12:46:59.136Z,20.40
2022-10-13T12:52:15.894Z,20.80
2022-10-13T12:57:38.695Z,21.30
2022-10-13T13:02:41.584Z,21.70
2022-10-13T13:07:53.107Z,21.50
2022-10-13T13:12:56.250Z,21.50
2022-10-13T13:18:27.247Z,20.90
2022-10-13T13:23:34.675Z,20.20
2022-10-13T13:28:43.018Z,19.70
2022-10-13T13:33:46.949Z,19.40
2022-10-13T13:38:49.847Z,19.20
2022-10-13T13:43:52.215Z,19.00
2022-10-13T13:48:54.625Z,18.90
2022-10-13T13:53:57.484Z,18.90
2022-10-13T13:59:00.086Z,19.10
2022-10-13T14:04:03.164Z,19.00
2022-10-13T14:09:05.815Z,19.10
2022-10-13T14:14:08.239Z,19.20
2022-10-13T14:19:10.656Z,19.30
2022-10-13T14:24:13.532Z,19.70
2022-10-13T14:29:16.765Z,20.80
2022-10-13T14:34:21.064Z,22.20
2022-10-13T14:39:23.433Z,23.00
2022-10-13T14:44:25.977Z,23.30
2022-10-13T14:49:28.382Z,23.00
2022-10-13T14:54:30.831Z,21.50
2022-10-13T14:59:33.212Z,20.40
2022-10-13T15:04:35.733Z,19.80
2022-10-13T15:09:52.138Z,19.40
2022-10-13T15:14:55.836Z,19.00
2022-10-13T15:19:58.311Z,18.50
2022-10-13T15:25:00.911Z,18.10
2022-10-13T15:30:03.556Z,17.70
2022-10-13T15:35:06.870Z,17.40
2022-10-13T15:40:10.047Z,17.20
2022-10-13T15:45:12.432Z,17.10
2022-10-13T15:50:15.170Z,16.70
2022-10-13T15:55:18.112Z,16.50
2022-10-13T16:00:20.794Z,16.30
2022-10-13T16:05:23.386Z,16.20
2022-10-13T16:10:25.762Z,15.90
2022-10-13T16:15:29.225Z,15.70
2022-10-13T16:20:37.716Z,15.60
2022-10-13T16:25:40.231Z,15.40
2022-10-13T16:30:43.119Z,15.10
2022-10-13T16:35:45.944Z,14.80
2022-10-13T16:40:49.438Z,14.60
2022-10-13T16:46:00.248Z,14.40
2022-10-13T16:51:12.365Z,14.20
2022-10-13T16:56:14.831Z,14.00
2022-10-13T17:01:17.361Z,13.70
2022-10-13T17:06:22.333Z,13.40
2022-10-13T17:11:32.300Z,13.20
2022-10-13T17:16:35.952Z,13.20
2022-10-13T17:21:38.465Z,13.10
2022-10-13T17:26:43.956Z,13.00
2022-10-13T17:31:46.428Z,13.00
2022-10-13T17:36:48.823Z,13.20
2022-10-13T17:41:51.223Z,13.10
2022-10-13T17:46:53.659Z,13.20
2022-10-13T17:51:56.103Z,13.10
2022-10-13T17:56:58.541Z,13.20
2022-10-13T18:02:01.070Z,13.00
2022-10-13T18:07:03.523Z,12.90
2022-10-13T18:12:06.092Z,12.60
2022-10-13T18:17:08.528Z,12.50
2022-10-13T18:22:10.996Z,12.40
2022-10-13T18:27:13.337Z,12.30
2022-10-13T18:32:15.733Z,12.20
2022-10-13T18:37:18.692Z,11.90
2022-10-13T18:42:21.315Z,12.00
2022-10-13T18:47:23.818Z,11.90
2022-10-13T18:52:26.349Z,11.80
2022-10-13T18:57:28.732Z,11.90
2022-10-13T19:02:31.152Z,11.90
2022-10-13T19:07:36.891Z,12.10
2022-10-13T19:12:41.595Z,12.20
2022-10-13T19:17:44.093Z,12.10
2022-10-13T19:22:46.532Z,12.30
2022-10-13T19:27:51.220Z,11.80
2022-10-13T19:32:54.159Z,11.90
2022-10-13T19:37:56.848Z,11.80
2022-10-13T19:43:01.690Z,11.60
2022-10-13T19:48:04.323Z,11.70
2022-10-13T19:53:06.825Z,11.60
2022-10-13T19:58:09.307Z,11.50
2022-10-13T20:03:13.203Z,11.50
2022-10-13T20:08:18.795Z,11.50
2022-10-13T20:13:21.230Z,11.50
2022-10-13T20:18:26.347Z,11.50
2022-10-13T20:23:28.770Z,11.40
2022-10-13T20:28:31.913Z,11.50
2022-10-13T20:33:34.780Z,11.40
2022-10-13T20:38:37.607Z,11.20
2022-10-13T20:43:40.167Z,11.20
2022-10-13T20:54:06.481Z,11.10
2022-10-13T20:59:11.990Z,10.90
2022-10-13T21:04:14.425Z,10.90
2022-10-13T21:09:16.898Z,10.80
2022-10-13T21:14:19.327Z,10.70
2022-10-13T21:19:21.870Z,10.50
2022-10-13T21:24:24.379Z,10.40
2022-10-13T21:29:26.938Z,10.60
2022-10-13T21:34:29.371Z,10.50
2022-10-13T21:39:32.071Z,10.40
2022-10-13T21:44:34.474Z,10.40
2022-10-13T21:49:41.958Z,10.30
2022-10-13T21:54:44.459Z,10.30
2022-10-13T21:59:47.762Z,10.40
2022-10-13T22:04:50.309Z,10.30
2022-10-13T22:09:52.800Z,10.40
2022-10-13T22:14:55.256Z,10.10
2022-10-13T22:19:57.619Z,10.30
2022-10-13T22:25:00.085Z,10.10
2022-10-13T22:30:07.779Z,10.00
2022-10-13T22:35:10.140Z,10.10
2022-10-13T22:40:12.828Z,10.10
2022-10-13T22:45:15.312Z,10.10
2022-10-13T22:50:18.605Z,10.00
2022-10-13T22:55:21.170Z,10.00
2022-10-13T23:00:23.609Z,10.00
2022-10-13T23:05:26.122Z,10.20
2022-10-13T23:10:28.552Z,10.10
2022-10-13T23:15:31.443Z,10.20
2022-10-13T23:20:33.854Z,10.10
2022-10-13T23:25:37.807Z,10.20
2022-10-13T23:30:40.301Z,10.00
2022-10-13T23:35:42.688Z,10.00
2022-10-13T23:40:45.732Z,10.10
2022-10-13T23:45:48.387Z,10.10
2022-10-13T23:50:50.831Z,9.90
2022-10-13T23:55:53.236Z,9.70
